sensor_id;sensor_type;location;lat;lon;timestamp;pressure;altitude;pressure_sealevel;temperature;humidity
36304;BME280;22335;49.800;8.596;2023-02-19T00:04:41;100968.06;;;15.44;52.77
36304;BME280;22335;49.800;8.596;2023-02-19T00:11:26;100955.00;;;15.36;52.77
36304;BME280;22335;49.800;8.596;2023-02-19T00:18:13;100942.44;;;15.30;53.21
36304;BME280;22335;49.800;8.596;2023-02-19T00:24:56;100949.88;;;15.30;52.90
36304;BME280;22335;49.800;8.596;2023-02-19T00:31:40;100924.88;;;15.26;53.16
36304;BME280;22335;49.800;8.596;2023-02-19T00:38:26;100915.06;;;15.20;53.18
36304;BME280;22335;49.800;8.596;2023-02-19T00:45:10;100920.06;;;15.18;53.36
36304;BME280;22335;49.800;8.596;2023-02-19T00:51:54;100926.19;;;15.15;53.61
36304;BME280;22335;49.800;8.596;2023-02-19T00:58:39;100936.16;;;15.11;53.76
36304;BME280;22335;49.800;8.596;2023-02-19T01:05:22;100940.88;;;15.10;53.55
36304;BME280;22335;49.800;8.596;2023-02-19T01:12:06;100906.78;;;15.06;53.80
36304;BME280;22335;49.800;8.596;2023-02-19T01:18:52;100903.28;;;14.87;54.34
36304;BME280;22335;49.800;8.596;2023-02-19T01:25:36;100902.97;;;14.88;54.35
36304;BME280;22335;49.800;8.596;2023-02-19T01:32:20;100909.59;;;14.87;54.03
36304;BME280;22335;49.800;8.596;2023-02-19T01:39:05;100889.41;;;14.78;54.67
36304;BME280;22335;49.800;8.596;2023-02-19T01:45:49;100904.03;;;14.73;54.59
36304;BME280;22335;49.800;8.596;2023-02-19T01:52:35;100849.72;;;14.46;54.50
36304;BME280;22335;49.800;8.596;2023-02-19T01:59:20;100878.66;;;14.76;54.82
36304;BME280;22335;49.800;8.596;2023-02-19T02:06:07;100877.56;;;14.78;54.78
36304;BME280;22335;49.800;8.596;2023-02-19T02:12:56;100876.13;;;14.80;54.89
36304;BME280;22335;49.800;8.596;2023-02-19T02:20:00;100860.72;;;14.79;55.04
36304;BME280;22335;49.800;8.596;2023-02-19T02:27:05;100851.94;;;14.77;55.17
36304;BME280;22335;49.800;8.596;2023-02-19T02:34:17;100836.13;;;14.69;55.25
36304;BME280;22335;49.800;8.596;2023-02-19T02:41:04;100855.09;;;14.70;55.30
36304;BME280;22335;49.800;8.596;2023-02-19T02:47:51;100840.84;;;14.68;55.45
36304;BME280;22335;49.800;8.596;2023-02-19T02:54:38;100843.38;;;14.65;55.54
36304;BME280;22335;49.800;8.596;2023-02-19T03:01:43;100841.72;;;14.64;55.38
36304;BME280;22335;49.800;8.596;2023-02-19T03:08:51;100834.28;;;14.64;55.73
36304;BME280;22335;49.800;8.596;2023-02-19T03:15:41;100829.97;;;14.58;55.74
36304;BME280;22335;49.800;8.596;2023-02-19T03:22:45;100819.22;;;14.62;55.83
36304;BME280;22335;49.800;8.596;2023-02-19T03:29:30;100817.66;;;14.56;56.17
36304;BME280;22335;49.800;8.596;2023-02-19T03:36:21;100828.06;;;14.59;56.03
36304;BME280;22335;49.800;8.596;2023-02-19T03:43:15;100832.72;;;14.58;55.84
36304;BME280;22335;49.800;8.596;2023-02-19T04:05:08;100808.41;;;14.14;56.36
36304;BME280;22335;49.800;8.596;2023-02-19T04:11:55;100849.13;;;14.49;56.43
36304;BME280;22335;49.800;8.596;2023-02-19T04:18:42;100858.72;;;14.52;56.25
36304;BME280;22335;49.800;8.596;2023-02-19T04:25:30;100852.69;;;14.50;56.56
36304;BME280;22335;49.800;8.596;2023-02-19T04:32:14;100866.00;;;14.62;56.37
36304;BME280;22335;49.800;8.596;2023-02-19T04:38:58;100868.66;;;14.67;56.21
36304;BME280;22335;49.800;8.596;2023-02-19T04:45:43;100872.81;;;14.64;56.59
36304;BME280;22335;49.800;8.596;2023-02-19T04:52:26;100824.88;;;14.33;56.49
36304;BME280;22335;49.800;8.596;2023-02-19T04:59:10;100881.91;;;14.65;56.62
36304;BME280;22335;49.800;8.596;2023-02-19T05:05:55;100900.88;;;14.66;56.49
36304;BME280;22335;49.800;8.596;2023-02-19T05:12:38;100824.53;;;14.20;56.44
36304;BME280;22335;49.800;8.596;2023-02-19T05:19:22;100895.06;;;14.68;56.78
36304;BME280;22335;49.800;8.596;2023-02-19T05:26:10;100905.47;;;14.71;56.49
36304;BME280;22335;49.800;8.596;2023-02-19T05:32:57;100909.75;;;14.77;56.67
36304;BME280;22335;49.800;8.596;2023-02-19T05:39:41;100902.44;;;14.72;56.70
36304;BME280;22335;49.800;8.596;2023-02-19T05:46:27;100890.03;;;14.56;56.90
36304;BME280;22335;49.800;8.596;2023-02-19T05:53:11;100917.56;;;14.89;55.90
36304;BME280;22335;49.800;8.596;2023-02-19T05:59:55;100928.34;;;14.71;56.58
36304;BME280;22335;49.800;8.596;2023-02-19T06:06:41;100892.09;;;14.45;56.75
36304;BME280;22335;49.800;8.596;2023-02-19T06:13:24;100922.38;;;14.64;56.31
36304;BME280;22335;49.800;8.596;2023-02-19T06:20:08;100951.41;;;14.89;56.68
36304;BME280;22335;49.800;8.596;2023-02-19T06:26:53;100961.28;;;14.76;57.10
36304;BME280;22335;49.800;8.596;2023-02-19T06:33:37;100983.63;;;14.56;57.51
36304;BME280;22335;49.800;8.596;2023-02-19T06:40:21;100998.09;;;14.43;57.71
36304;BME280;22335;49.800;8.596;2023-02-19T06:47:07;100995.88;;;14.26;58.29
36304;BME280;22335;49.800;8.596;2023-02-19T06:53:50;101007.13;;;14.05;58.43
36304;BME280;22335;49.800;8.596;2023-02-19T07:00:34;101022.72;;;13.91;59.10
36304;BME280;22335;49.800;8.596;2023-02-19T07:07:19;101015.06;;;13.88;59.22
36304;BME280;22335;49.800;8.596;2023-02-19T07:14:04;101027.22;;;14.06;58.81
36304;BME280;22335;49.800;8.596;2023-02-19T07:20:49;101026.25;;;13.97;58.94
36304;BME280;22335;49.800;8.596;2023-02-19T07:27:34;101037.91;;;14.07;59.54
36304;BME280;22335;49.800;8.596;2023-02-19T07:34:17;101040.66;;;14.07;59.48
36304;BME280;22335;49.800;8.596;2023-02-19T07:41:02;101045.94;;;14.04;59.51
36304;BME280;22335;49.800;8.596;2023-02-19T07:47:48;101054.31;;;13.94;60.13
36304;BME280;22335;49.800;8.596;2023-02-19T07:54:31;101074.38;;;13.94;59.93
36304;BME280;22335;49.800;8.596;2023-02-19T08:01:16;101077.06;;;13.99;59.87
36304;BME280;22335;49.800;8.596;2023-02-19T08:08:22;101088.31;;;14.03;59.90
36304;BME280;22335;49.800;8.596;2023-02-19T08:15:06;101091.94;;;14.22;59.67
36304;BME280;22335;49.800;8.596;2023-02-19T08:21:50;101098.47;;;14.50;59.25
36304;BME280;22335;49.800;8.596;2023-02-19T08:28:35;101103.72;;;14.71;58.36
36304;BME280;22335;49.800;8.596;2023-02-19T08:35:19;101122.72;;;14.91;57.73
36304;BME280;22335;49.800;8.596;2023-02-19T08:42:03;101131.28;;;15.09;57.54
36304;BME280;22335;49.800;8.596;2023-02-19T08:48:50;101075.34;;;14.89;56.91
36304;BME280;22335;49.800;8.596;2023-02-19T08:55:36;101136.56;;;15.24;56.64
36304;BME280;22335;49.800;8.596;2023-02-19T09:02:20;101129.13;;;15.25;56.55
36304;BME280;22335;49.800;8.596;2023-02-19T09:09:05;101167.44;;;15.59;56.50
36304;BME280;22335;49.800;8.596;2023-02-19T09:15:49;101174.94;;;15.72;56.48
36304;BME280;22335;49.800;8.596;2023-02-19T09:22:32;101178.06;;;15.84;56.23
36304;BME280;22335;49.800;8.596;2023-02-19T09:29:17;101175.72;;;15.91;55.96
36304;BME280;22335;49.800;8.596;2023-02-19T09:36:03;101178.19;;;15.93;55.42
36304;BME280;22335;49.800;8.596;2023-02-19T09:42:48;101196.97;;;15.91;55.30
36304;BME280;22335;49.800;8.596;2023-02-19T09:49:35;101186.53;;;15.88;54.98
36304;BME280;22335;49.800;8.596;2023-02-19T09:56:20;101180.63;;;15.95;54.67
36304;BME280;22335;49.800;8.596;2023-02-19T10:03:05;101178.59;;;16.00;54.75
36304;BME280;22335;49.800;8.596;2023-02-19T10:09:57;101161.22;;;15.86;54.73
36304;BME280;22335;49.800;8.596;2023-02-19T10:16:45;101195.09;;;16.19;54.69
36304;BME280;22335;49.800;8.596;2023-02-19T10:23:30;101151.53;;;16.02;54.68
36304;BME280;22335;49.800;8.596;2023-02-19T10:30:20;101206.66;;;16.21;53.47
36304;BME280;22335;49.800;8.596;2023-02-19T10:37:09;101220.69;;;15.92;53.32
36304;BME280;22335;49.800;8.596;2023-02-19T10:44:01;101224.59;;;15.72;53.33
36304;BME280;22335;49.800;8.596;2023-02-19T10:50:51;101220.50;;;15.70;53.26
36304;BME280;22335;49.800;8.596;2023-02-19T10:57:38;101245.88;;;15.66;53.04
36304;BME280;22335;49.800;8.596;2023-02-19T11:04:22;101209.78;;;15.30;52.90
36304;BME280;22335;49.800;8.596;2023-02-19T11:11:07;101259.69;;;15.48;52.79
36304;BME280;22335;49.800;8.596;2023-02-19T11:17:56;101264.91;;;15.30;52.76
36304;BME280;22335;49.800;8.596;2023-02-19T11:24:47;101249.75;;;15.09;52.26
36304;BME280;22335;49.800;8.596;2023-02-19T11:31:33;101264.59;;;15.32;52.81
36304;BME280;22335;49.800;8.596;2023-02-19T11:38:17;101265.28;;;15.42;53.07
36304;BME280;22335;49.800;8.596;2023-02-19T11:45:28;101256.94;;;15.48;52.96
36304;BME280;22335;49.800;8.596;2023-02-19T11:52:26;101259.25;;;15.40;52.62
36304;BME280;22335;49.800;8.596;2023-02-19T11:59:20;101268.16;;;15.32;51.92
36304;BME280;22335;49.800;8.596;2023-02-19T12:06:18;101282.75;;;15.33;51.58
36304;BME280;22335;49.800;8.596;2023-02-19T12:13:11;101269.69;;;15.43;50.92
36304;BME280;22335;49.800;8.596;2023-02-19T12:20:13;101270.72;;;15.48;51.22
36304;BME280;22335;49.800;8.596;2023-02-19T12:27:14;101266.25;;;15.52;51.20
36304;BME280;22335;49.800;8.596;2023-02-19T12:34:25;101259.19;;;15.64;51.23
36304;BME280;22335;49.800;8.596;2023-02-19T12:41:25;101256.34;;;15.70;50.83
36304;BME280;22335;49.800;8.596;2023-02-19T12:48:22;101253.53;;;15.75;50.46
36304;BME280;22335;49.800;8.596;2023-02-19T12:55:19;101259.94;;;15.89;50.91
36304;BME280;22335;49.800;8.596;2023-02-19T13:02:12;101244.09;;;15.95;50.33
36304;BME280;22335;49.800;8.596;2023-02-19T13:09:00;101255.84;;;16.00;49.79
36304;BME280;22335;49.800;8.596;2023-02-19T13:15:51;101241.78;;;16.02;49.91
36304;BME280;22335;49.800;8.596;2023-02-19T13:22:40;101178.25;;;15.74;49.64
36304;BME280;22335;49.800;8.596;2023-02-19T13:30:06;101245.47;;;16.11;49.42
36304;BME280;22335;49.800;8.596;2023-02-19T13:37:01;101238.19;;;16.01;49.19
36304;BME280;22335;49.800;8.596;2023-02-19T13:43:45;101247.38;;;15.97;49.06
36304;BME280;22335;49.800;8.596;2023-02-19T13:50:36;101252.50;;;16.03;48.83
36304;BME280;22335;49.800;8.596;2023-02-19T13:57:27;101244.22;;;16.03;48.59
36304;BME280;22335;49.800;8.596;2023-02-19T14:04:18;101253.38;;;16.18;48.61
36304;BME280;22335;49.800;8.596;2023-02-19T14:11:03;101268.59;;;16.15;48.49
36304;BME280;22335;49.800;8.596;2023-02-19T14:17:49;101273.09;;;16.11;48.54
36304;BME280;22335;49.800;8.596;2023-02-19T14:24:36;101282.25;;;16.06;48.77
36304;BME280;22335;49.800;8.596;2023-02-19T14:31:26;101276.09;;;15.96;48.83
36304;BME280;22335;49.800;8.596;2023-02-19T14:38:17;101221.38;;;15.65;49.05
36304;BME280;22335;49.800;8.596;2023-02-19T14:45:05;101292.78;;;16.04;48.68
36304;BME280;22335;49.800;8.596;2023-02-19T14:51:52;101298.38;;;15.99;48.58
36304;BME280;22335;49.800;8.596;2023-02-19T14:58:41;101294.00;;;15.98;49.08
36304;BME280;22335;49.800;8.596;2023-02-19T15:05:26;101304.13;;;16.03;49.26
36304;BME280;22335;49.800;8.596;2023-02-19T15:12:14;101303.56;;;16.20;49.36
36304;BME280;22335;49.800;8.596;2023-02-19T15:19:04;101301.25;;;16.27;49.24
36304;BME280;22335;49.800;8.596;2023-02-19T15:25:49;101294.16;;;16.21;49.34
36304;BME280;22335;49.800;8.596;2023-02-19T15:32:33;101330.69;;;16.31;49.39
36304;BME280;22335;49.800;8.596;2023-02-19T15:39:23;101301.28;;;16.08;49.32
36304;BME280;22335;49.800;8.596;2023-02-19T15:46:10;101346.47;;;16.12;49.35
36304;BME280;22335;49.800;8.596;2023-02-19T15:53:02;101363.69;;;16.04;49.72
36304;BME280;22335;49.800;8.596;2023-02-19T15:59:53;101369.31;;;15.99;50.30
36304;BME280;22335;49.800;8.596;2023-02-19T16:06:54;101320.16;;;15.82;51.27
36304;BME280;22335;49.800;8.596;2023-02-19T16:13:38;101335.50;;;16.07;50.79
36304;BME280;22335;49.800;8.596;2023-02-19T16:20:26;101335.44;;;16.12;51.19
36304;BME280;22335;49.800;8.596;2023-02-19T16:27:11;101282.28;;;15.87;51.35
36304;BME280;22335;49.800;8.596;2023-02-19T16:33:55;101230.78;;;15.64;51.48
36304;BME280;22335;49.800;8.596;2023-02-19T16:41:11;101312.41;;;16.35;51.75
36304;BME280;22335;49.800;8.596;2023-02-19T16:47:56;101327.06;;;16.50;51.58
36304;BME280;22335;49.800;8.596;2023-02-19T16:54:40;101345.63;;;16.63;51.26
36304;BME280;22335;49.800;8.596;2023-02-19T17:01:25;101297.53;;;16.18;51.76
36304;BME280;22335;49.800;8.596;2023-02-19T17:08:31;101339.66;;;16.23;52.29
36304;BME280;22335;49.800;8.596;2023-02-19T17:15:15;101368.06;;;16.43;52.00
36304;BME280;22335;49.800;8.596;2023-02-19T17:22:00;101390.31;;;16.65;51.83
36304;BME280;22335;49.800;8.596;2023-02-19T17:28:45;101397.19;;;17.00;50.94
36304;BME280;22335;49.800;8.596;2023-02-19T17:35:29;101421.66;;;16.42;51.48
36304;BME280;22335;49.800;8.596;2023-02-19T17:42:13;101446.25;;;16.19;51.58
36304;BME280;22335;49.800;8.596;2023-02-19T17:48:57;101447.81;;;16.25;51.05
36304;BME280;22335;49.800;8.596;2023-02-19T17:55:42;101461.13;;;16.23;51.05
36304;BME280;22335;49.800;8.596;2023-02-19T18:02:27;101455.44;;;16.14;51.09
36304;BME280;22335;49.800;8.596;2023-02-19T18:09:10;101454.84;;;16.18;51.13
36304;BME280;22335;49.800;8.596;2023-02-19T18:15:55;101479.00;;;16.26;51.07
36304;BME280;22335;49.800;8.596;2023-02-19T18:22:40;101486.56;;;16.20;50.98
36304;BME280;22335;49.800;8.596;2023-02-19T18:29:25;101495.56;;;16.26;51.03
36304;BME280;22335;49.800;8.596;2023-02-19T18:36:10;101508.78;;;16.29;51.03
36304;BME280;22335;49.800;8.596;2023-02-19T18:42:55;101514.66;;;16.22;51.33
36304;BME280;22335;49.800;8.596;2023-02-19T18:49:39;101518.25;;;16.23;51.26
36304;BME280;22335;49.800;8.596;2023-02-19T18:56:26;101514.81;;;16.12;51.07
36304;BME280;22335;49.800;8.596;2023-02-19T19:03:12;101502.25;;;16.01;50.89
36304;BME280;22335;49.800;8.596;2023-02-19T19:09:55;101522.69;;;16.00;50.87
36304;BME280;22335;49.800;8.596;2023-02-19T19:16:39;101511.59;;;16.05;50.82
36304;BME280;22335;49.800;8.596;2023-02-19T19:23:24;101508.75;;;16.10;50.80
36304;BME280;22335;49.800;8.596;2023-02-19T19:30:08;101512.50;;;16.19;50.66
36304;BME280;22335;49.800;8.596;2023-02-19T19:36:52;101502.06;;;16.16;50.74
36304;BME280;22335;49.800;8.596;2023-02-19T19:43:37;101510.06;;;16.18;50.71
36304;BME280;22335;49.800;8.596;2023-02-19T19:50:20;101498.78;;;15.95;50.54
36304;BME280;22335;49.800;8.596;2023-02-19T19:57:04;101529.16;;;16.14;50.83
36304;BME280;22335;49.800;8.596;2023-02-19T20:03:48;101524.50;;;16.09;50.86
36304;BME280;22335;49.800;8.596;2023-02-19T20:10:32;101530.09;;;16.04;50.82
36304;BME280;22335;49.800;8.596;2023-02-19T20:17:15;101528.16;;;16.05;50.94
36304;BME280;22335;49.800;8.596;2023-02-19T20:24:00;101533.19;;;15.98;50.91
36304;BME280;22335;49.800;8.596;2023-02-19T20:30:44;101491.66;;;15.65;50.98
36304;BME280;22335;49.800;8.596;2023-02-19T20:37:27;101510.41;;;15.68;51.02
36304;BME280;22335;49.800;8.596;2023-02-19T20:44:13;101544.97;;;15.84;51.48
36304;BME280;22335;49.800;8.596;2023-02-19T20:50:56;101569.44;;;15.91;51.32
36304;BME280;22335;49.800;8.596;2023-02-19T20:57:41;101580.19;;;15.93;51.33
36304;BME280;22335;49.800;8.596;2023-02-19T21:04:26;101510.53;;;15.53;51.48
36304;BME280;22335;49.800;8.596;2023-02-19T21:11:09;101546.94;;;15.79;51.42
36304;BME280;22335;49.800;8.596;2023-02-19T21:17:53;101557.63;;;15.85;51.40
36304;BME280;22335;49.800;8.596;2023-02-19T21:24:38;101559.06;;;15.83;51.36
36304;BME280;22335;49.800;8.596;2023-02-19T21:31:21;101569.78;;;15.84;51.56
36304;BME280;22335;49.800;8.596;2023-02-19T21:38:06;101582.75;;;15.84;51.42
36304;BME280;22335;49.800;8.596;2023-02-19T21:44:50;101581.44;;;15.76;51.55
36304;BME280;22335;49.800;8.596;2023-02-19T21:51:35;101574.88;;;15.72;51.78
36304;BME280;22335;49.800;8.596;2023-02-19T21:58:20;101582.53;;;15.80;51.62
36304;BME280;22335;49.800;8.596;2023-02-19T22:05:05;101586.09;;;15.81;51.52
36304;BME280;22335;49.800;8.596;2023-02-19T22:11:49;101584.16;;;15.81;51.61
36304;BME280;22335;49.800;8.596;2023-02-19T22:18:32;101593.25;;;15.82;51.41
36304;BME280;22335;49.800;8.596;2023-02-19T22:25:17;101589.44;;;15.78;51.67
36304;BME280;22335;49.800;8.596;2023-02-19T22:32:01;101599.94;;;15.76;51.59
36304;BME280;22335;49.800;8.596;2023-02-19T22:38:44;101607.06;;;15.82;51.37
36304;BME280;22335;49.800;8.596;2023-02-19T22:45:29;101612.34;;;15.78;51.52
36304;BME280;22335;49.800;8.596;2023-02-19T22:52:13;101610.41;;;15.79;51.56
36304;BME280;22335;49.800;8.596;2023-02-19T22:58:57;101613.69;;;15.81;51.61
36304;BME280;22335;49.800;8.596;2023-02-19T23:05:47;101605.22;;;15.72;51.75
36304;BME280;22335;49.800;8.596;2023-02-19T23:12:30;101615.13;;;15.73;51.38
36304;BME280;22335;49.800;8.596;2023-02-19T23:19:14;101615.75;;;15.70;51.64
36304;BME280;22335;49.800;8.596;2023-02-19T23:25:59;101600.00;;;15.71;51.54
36304;BME280;22335;49.800;8.596;2023-02-19T23:32:44;101609.09;;;15.71;51.26
36304;BME280;22335;49.800;8.596;2023-02-19T23:39:28;101614.63;;;15.66;51.26
36304;BME280;22335;49.800;8.596;2023-02-19T23:46:16;101619.81;;;15.43;51.27
36304;BME280;22335;49.800;8.596;2023-02-19T23:53:00;101638.94;;;15.64;51.13
36304;BME280;22335;49.800;8.596;2023-02-19T23:59:43;101638.16;;;15.58;51.09
